Flight Track Log - Related Links

Times and Time Zones

All times are in EDT time to prevent confusion due to time zone crossing. See the EJM826 flight status page for this flight to view local times or setup timezone preferences in your user account.

Time Position Orientation Groundspeed Altitude Reporting Facility
EDT Latitude Longitude Course Direction KTS MPH feet Rate Location/Type
Sun 07:46:07 AM 32.3696 -64.7112 279° West 179 206 1,100  Level FlightAware ADS-B
Sun 07:46:24 AM 32.3706 -64.7275 273° West 187 215 1,700 2,800 Climbing FlightAware ADS-B
Sun 07:46:52 AM 32.3717 -64.7573 271° West 193 222 3,200 3,000 Climbing FlightAware ADS-B
Sun 07:47:06 AM 32.3719 -64.7723 273° West 198 228 3,800 2,483 Climbing FlightAware ADS-B
Sun 07:47:21 AM 32.3725 -64.7878 273° West 204 235 4,400 2,483 Climbing FlightAware ADS-B
Sun 07:47:35 AM 32.3733 -64.8042 274° West 216 249 5,000 2,276 Climbing FlightAware ADS-B
Sun 07:47:50 AM 32.3739 -64.8224 271° West 230 265 5,500 2,069 Climbing FlightAware ADS-B
Sun 07:48:04 AM 32.3739 -64.8419 270° West 244 281 6,000 2,357 Climbing FlightAware ADS-B
Sun 07:48:18 AM 32.3736 -64.8608 269° West 250 288 6,600 2,690 Climbing FlightAware ADS-B
Sun 07:48:33 AM 32.3731 -64.8801 270° West 254 292 7,300 2,791 Climbing FlightAware ADS-B
Sun 07:49:01 AM 32.3733 -64.9202 271° West 260 299 8,600 2,750 Climbing FlightAware ADS-B
Sun 07:49:21 AM 32.3738 -64.9467 272° West 260 299 9,500 2,458 Climbing FlightAware ADS-B
Sun 07:50:24 AM 32.3758 -65.0410 270° West 280 322 12,000 2,500 Climbing FlightAware ADS-B
Sun 07:51:09 AM 32.3750 -65.1075 270° West 273 314 14,000 2,475 Climbing FlightAware ADS-B
Sun 07:51:44 AM 32.3757 -65.1575 272° West 277 319 15,300 2,087 Climbing FlightAware ADS-B
Sun 07:52:18 AM 32.3781 -65.2075 272° West 273 314 16,400 2,348 Climbing New York Center
Sun 07:53:16 AM 32.3758 -65.2983 268° West 273 314 18,900 2,100 Climbing New York Center
Sun 07:54:18 AM 32.3775 -65.3769 271° West 273 314 20,600 1,800 Climbing New York Center
Sun 07:55:16 AM 32.3758 -65.4800 269° West 279 321 22,500 1,750 Climbing New York Center
Sun 07:56:18 AM 32.3756 -65.5683 270° West 289 333 24,100 1,700 Climbing New York Center
Sun 07:57:16 AM 32.3800 -65.6739 273° West 294 338 25,900 1,576 Climbing New York Center
Sun 07:58:16 AM 32.3803 -65.7744 270° West 300 345 27,200 1,279 Climbing New York Center
Sun 07:59:18 AM 32.3758 -65.8681 267° West 311 358 28,500 1,300 Climbing New York Center
Sun 08:00:16 AM 32.3783 -65.9858 271° West 328 377 29,800 1,220 Climbing New York Center
Sun 08:01:16 AM 32.3767 -66.0964 269° West 334 384 30,900 992 Climbing New York Center
Sun 08:02:17 AM 32.3783 -66.1994 271° West 339 390 31,800 934 Climbing New York Center
Sun 08:03:18 AM 32.3769 -66.3272 269° West 362 417 32,800 1,091 Climbing New York Center
Sun 08:04:18 AM 32.3769 -66.4350 270° West 368 423 34,000 1,160 Climbing New York Center
Sun 08:05:17 AM 32.3817 -66.5675 272° West 368 423 35,100 857 Climbing New York Center
Sun 08:06:17 AM 32.3772 -66.6856 267° West 368 423 35,700 650 Climbing New York Center
Sun 08:07:17 AM 32.3747 -66.7961 268° West 368 423 36,400 763 Climbing New York Center
Sun 08:08:15 AM 32.3772 -66.9336 271° West 373 429 37,200 807 Climbing New York Center
Sun 08:09:16 AM 32.3769 -67.0539 270° West 373 429 38,000 689 Climbing New York Center
Sun 08:10:17 AM 32.3742 -67.1669 268° West 378 435 38,600 650 Climbing New York Center
Sun 08:11:16 AM 32.3719 -67.3019 269° West 388 447 39,300 645 Climbing New York Center
Sun 08:12:18 AM 32.3711 -67.4272 270° West 383 441 39,900 347 Climbing New York Center
Sun 08:13:17 AM 32.3744 -67.5425 272° West 390 449 40,000 50 Climbing New York Center
Sun 08:14:18 AM 32.3678 -67.6878 267° West 390 449 40,000  Level New York Center
Sun 08:15:18 AM 32.3622 -67.8033 267° West 403 464 40,000  Level New York Center
Sun 08:16:17 AM 32.3572 -67.9336 267° West 403 464 40,000  Level New York Center
Sun 08:17:16 AM 32.3539 -68.0614 268° West 403 464 40,000  Level New York Center
Sun 08:21:20 AM 32.3500 -68.2333 265° West 412 474 40,000  Level New York Oceanic (ODAPS)
Sun 09:00:27 AM 31.8000 -73.8500 276° West 415 478 40,000  Level New York Oceanic (ODAPS)
Sun 09:11:28 AM 31.9147 -75.3256 274° West 463 533 40,000  Level New York Center
Sun 09:12:00 AM 31.9220 -75.4676 275° West 415 478 40,000  Level FlightAware Transoceanic
Sun 09:12:30 AM 31.9175 -75.4672 271° West 464 534 40,000  Level New York Center
Sun 09:13:00 AM 31.9312 -75.6025 275° West 415 478 40,000  Level FlightAware Transoceanic
Sun 09:13:28 AM 31.9308 -75.5950 277° West 433 498 40,000  Level New York Center
Sun 09:14:00 AM 31.9403 -75.7375 275° West 415 478 40,000  Level FlightAware Transoceanic
Sun 09:14:28 AM 31.9378 -75.7272 274° West 426 490 40,000  Level New York Center
Sun 09:15:00 AM 31.9493 -75.8726 274° West 415 478 40,000  Level FlightAware Transoceanic
Sun 09:15:29 AM 31.9511 -75.8553 277° West 408 470 40,000  Level New York Center
Sun 09:16:30 AM 31.9575 -75.9922 273° West 415 478 40,000  Level New York Center
Sun 09:17:29 AM 31.9658 -76.1322 274° West 415 478 40,000  Level New York Center
Sun 09:19:05 AM 31.9808 -76.3492 275° West 424 488 40,000  Level Jacksonville Center
Sun 09:20:05 AM 31.9878 -76.4858 273° West 417 480 40,000  Level Jacksonville Center
Sun 09:21:05 AM 31.9928 -76.6275 272° West 422 486 40,000  Level Jacksonville Center
Sun 09:22:05 AM 32.0158 -76.7606 282° West 422 486 40,000  Level Jacksonville Center
Sun 09:23:05 AM 32.0306 -76.8919 278° West 422 486 40,000  Level Jacksonville Center
Sun 09:24:05 AM 32.0367 -77.0236 273° West 422 486 40,000  Level Jacksonville Center
Sun 09:25:05 AM 32.0431 -77.1631 273° West 422 486 40,000  Level Jacksonville Center
Sun 09:26:05 AM 32.0533 -77.2994 275° West 422 486 40,000  Level Jacksonville Center
Sun 09:27:05 AM 32.0594 -77.4364 273° West 422 486 40,000  Level Jacksonville Center
Sun 09:28:05 AM 32.0675 -77.5756 274° West 422 486 40,000  Level Jacksonville Center
Sun 09:29:05 AM 32.0731 -77.7125 273° West 422 486 40,000  Level Jacksonville Center
Sun 09:30:05 AM 32.0808 -77.8494 274° West 424 488 40,000  Level Jacksonville Center
Sun 09:31:05 AM 32.0861 -77.9889 273° West 424 488 40,000  Level Jacksonville Center
Sun 09:32:05 AM 32.0936 -78.1258 274° West 424 488 40,000  Level Jacksonville Center
Sun 09:33:05 AM 32.0972 -78.2800 272° West 427 491 40,000  Level Jacksonville Center
Sun 09:34:05 AM 32.1042 -78.4144 274° West 427 491 40,000  Level Jacksonville Center
Sun 09:35:05 AM 32.1108 -78.5514 273° West 417 480 40,000  Level Jacksonville Center
Sun 09:36:05 AM 32.1197 -78.6883 274° West 422 486 40,000  Level Jacksonville Center
Sun 09:37:05 AM 32.1264 -78.8281 273° West 422 486 40,000  Level Jacksonville Center
Sun 09:38:05 AM 32.1306 -78.9650 272° West 422 486 40,000  Level Jacksonville Center
Sun 09:39:05 AM 32.1372 -79.1072 273° West 427 491 40,000  Level Jacksonville Center
Sun 09:40:05 AM 32.1433 -79.2492 273° West 427 491 40,000  Level Jacksonville Center
Sun 09:41:05 AM 32.1494 -79.3886 273° West 427 491 40,000  Level Jacksonville Center
Sun 09:42:05 AM 32.1533 -79.5308 272° West 433 498 40,000  Level Jacksonville Center
Sun 09:47:21 AM 32.1468 -79.3006 268° West 434 499 40,000  Level FlightAware ADS-B
Sun 09:53:05 AM 32.1362 -81.1045 268° West 437 503 40,000  Level FlightAware ADS-B
Sun 09:54:04 AM 32.1319 -81.2356 268° West 438 504 40,000  Level FlightAware ADS-B
Sun 09:54:45 AM 32.1292 -81.3200 268° West 439 505 40,000  Level FlightAware ADS-B
Sun 09:55:25 AM 32.1263 -81.4026 268° West 437 503 40,000  Level FlightAware ADS-B
Sun 09:56:06 AM 32.1223 -81.5194 268° West 435 501 40,000  Level FlightAware ADS-B
Sun 09:56:45 AM 32.1184 -81.6271 268° West 433 498 40,000  Level FlightAware ADS-B
Sun 09:58:11 AM 32.1144 -81.7975 268° West 426 490 40,000  Level Atlanta Center
Sun 09:59:11 AM 32.1086 -81.9375 267° West 426 490 40,000  Level Atlanta Center
Sun 10:00:11 AM 32.1025 -82.0775 267° West 426 490 40,000  Level Atlanta Center
Sun 10:01:11 AM 32.0922 -82.2172 265° West 426 490 40,000  Level Atlanta Center
Sun 10:02:11 AM 32.0919 -82.3594 270° West 426 490 40,000  Level Atlanta Center
Sun 10:03:11 AM 32.0814 -82.4994 265° West 426 490 40,000  Level Atlanta Center
Sun 10:04:11 AM 32.0789 -82.6392 269° West 426 490 40,000  Level Atlanta Center
Sun 10:05:11 AM 32.0719 -82.7789 267° West 432 497 40,000  Level Atlanta Center
Sun 10:06:11 AM 32.0650 -82.9214 267° West 432 497 40,000  Level Atlanta Center
Sun 10:07:11 AM 32.0578 -83.0636 267° West 437 503 40,000  Level Atlanta Center
Sun 10:08:11 AM 32.0528 -83.2033 268° West 437 503 40,000  Level Atlanta Center
Sun 10:09:11 AM 32.0453 -83.3431 266° West 437 503 40,000  Level Atlanta Center
Sun 10:10:11 AM 32.0397 -83.4850 267° West 437 503 40,000  Level Atlanta Center
Sun 10:11:11 AM 32.0319 -83.6272 266° West 437 503 40,000  Level Atlanta Center
Sun 10:12:11 AM 32.0239 -83.7669 266° West 437 503 40,000  Level Atlanta Center
Sun 10:13:11 AM 32.0178 -83.9261 267° West 444 511 40,000  Level Atlanta Center
Sun 10:14:11 AM 32.0075 -84.0658 265° West 444 511 40,000  Level Atlanta Center
Sun 10:15:11 AM 31.9992 -84.2103 266° West 444 511 40,000  Level Atlanta Center
Sun 10:16:11 AM 31.9903 -84.3572 266° West 444 511 40,000  Level Atlanta Center
Sun 10:17:11 AM 31.9817 -84.5017 266° West 444 511 40,000  Level Atlanta Center
Sun 10:18:11 AM 31.9747 -84.6461 267° West 444 511 40,000  Level Atlanta Center
Sun 10:19:11 AM 31.9656 -84.7928 266° West 444 511 40,000  Level Atlanta Center
Sun 10:20:11 AM 31.9561 -84.9397 266° West 444 511 40,000  Level Atlanta Center
Sun 10:21:11 AM 31.9467 -85.0839 266° West 444 511 40,000  Level Atlanta Center
Sun 10:22:11 AM 31.9353 -85.2061 264° West 439 505 40,000  Level Atlanta Center
Sun 10:23:11 AM 31.9256 -85.3506 266° West 439 505 40,000  Level Atlanta Center
Sun 10:24:11 AM 31.9175 -85.4947 266° West 444 511 40,000  Level Atlanta Center
Sun 10:25:11 AM 31.9075 -85.6339 265° West 439 505 40,000  Level Atlanta Center
Sun 10:26:11 AM 31.8969 -85.7978 266° West 449 517 40,000  Level Atlanta Center
Sun 10:27:11 AM 31.8886 -85.9419 266° West 455 524 40,000  Level Atlanta Center
Sun 10:28:46 AM 31.8733 -86.1564 265° West 441 507 40,000  Level Houston Center
Sun 10:29:48 AM 31.8614 -86.2983 264° West 441 507 40,000  Level Houston Center
Sun 10:30:49 AM 31.8522 -86.4400 266° West 439 505 40,000  Level Houston Center
Sun 10:31:51 AM 31.8406 -86.5794 264° West 435 501 40,000  Level Houston Center
Sun 10:32:53 AM 31.8292 -86.7436 265° West 434 499 40,000  Level Houston Center
Sun 10:33:54 AM 31.8189 -86.8831 265° West 433 498 40,000  Level Houston Center
Sun 10:34:56 AM 31.8078 -87.0236 265° West 433 498 40,000  Level Houston Center
Sun 10:35:58 AM 31.7967 -87.1656 265° West 435 501 40,000  Level Houston Center
Sun 10:36:59 AM 31.7842 -87.3072 264° West 436 502 40,000  Level Houston Center
Sun 10:38:01 AM 31.7731 -87.4497 265° West 438 504 40,000  Level Houston Center
Sun 10:39:03 AM 31.7586 -87.6228 264° West 442 509 40,000  Level Houston Center
Sun 10:40:05 AM 31.7475 -87.7656 265° West 444 511 40,000  Level Houston Center
Sun 10:41:06 AM 31.7356 -87.9086 264° West 443 510 40,000  Level Houston Center
Sun 10:42:08 AM 31.7225 -88.0500 264° West 443 510 40,000  Level Houston Center
Sun 10:43:10 AM 31.7106 -88.1914 264° West 441 507 40,000  Level Houston Center
Sun 10:44:12 AM 31.6983 -88.3311 264° West 439 505 40,000  Level Houston Center
Sun 10:45:14 AM 31.6833 -88.5008 264° West 439 505 40,000  Level Houston Center
Sun 10:46:15 AM 31.6711 -88.6428 264° West 440 506 40,000  Level Houston Center
Sun 10:47:17 AM 31.6572 -88.7850 263° West 441 507 40,000  Level Houston Center
Sun 10:48:19 AM 31.6444 -88.9286 264° West 443 510 40,000  Level Houston Center
Sun 10:49:21 AM 31.6311 -89.0731 264° West 448 516 40,000  Level Houston Center
Sun 10:50:22 AM 31.6169 -89.2167 263° West 447 514 40,000  Level Houston Center
Sun 10:51:24 AM 31.6003 -89.3889 264° West 447 514 40,000  Level Houston Center
Sun 10:52:26 AM 31.5856 -89.5342 263° West 447 514 40,000  Level Houston Center
Sun 10:53:28 AM 31.5725 -89.6750 264° West 446 513 40,000  Level Houston Center
Sun 10:54:30 AM 31.5567 -89.8194 263° West 446 513 40,000  Level Houston Center
Sun 10:55:31 AM 31.5428 -89.9619 264° West 446 513 40,000  Level Houston Center
Sun 10:56:33 AM 31.5283 -90.1078 263° West 447 514 40,000  Level Houston Center
Sun 10:57:35 AM 31.5094 -90.2844 263° West 454 522 40,000  Level Houston Center
Sun 10:58:37 AM 31.4936 -90.4314 263° West 456 525 40,000 -48 Level Houston Center
Sun 10:59:39 AM 31.4775 -90.5772 263° West 455 524 39,900  Descending Houston Center
Sun 11:00:41 AM 31.4625 -90.7211 263° West 452 520 40,000 49 Climbing Houston Center
Sun 11:01:42 AM 31.4469 -90.8658 263° West 451 519 40,000  Level Houston Center
Sun 11:02:44 AM 31.4314 -91.0114 263° West 451 519 40,000  Level Houston Center
Sun 11:03:46 AM 31.4117 -91.1744 262° West 451 519 40,000  Level Houston Center
Sun 11:04:48 AM 31.3947 -91.3197 262° West 451 519 40,000  Level Houston Center
Sun 11:05:50 AM 31.3783 -91.4636 262° West 450 518 40,000  Level Houston Center
Sun 11:06:52 AM 31.3592 -91.6381 263° West 450 518 40,000  Level Houston Center
Sun 11:07:54 AM 31.3422 -91.7828 262° West 451 519 40,000  Level Houston Center
Sun 11:08:56 AM 31.3242 -91.9297 262° West 453 521 40,000 -48 Level Houston Center
Sun 11:09:58 AM 31.3072 -92.0883 263° West 456 525 39,900  Descending Houston Center
Sun 11:11:00 AM 31.2894 -92.2317 262° West 451 519 40,000 14 Climbing Houston Center
Sun 11:17:07 AM 30.9525 -93.0528 238° Southwest 472 543 40,000  Level FlightAware ADS-B (KHOU)
Sun 11:17:37 AM 30.9200 -93.1113 238° Southwest 472 543 40,000  Level FlightAware ADS-B (KHOU)
Sun 11:18:06 AM 30.8823 -93.1790 238° Southwest 472 543 40,000  Level FlightAware ADS-B (KHOU)
Sun 11:18:37 AM 30.8786 -93.1858 238° Southwest 471 542 40,000  Level FlightAware ADS-B (KHOU)
Sun 11:19:07 AM 30.8139 -93.3017 238° Southwest 469 540 40,000  Level FlightAware ADS-B (KHOU)
Sun 11:19:36 AM 30.7758 -93.3699 237° Southwest 466 536 40,000  Level FlightAware ADS-B (KHOU)
Sun 11:20:06 AM 30.7412 -93.4319 238° Southwest 463 533 40,000  Level FlightAware ADS-B (KHOU)
Sun 11:20:37 AM 30.7052 -93.4959 238° Southwest 461 531 40,000  Level FlightAware ADS-B (KHOU)
Sun 11:21:07 AM 30.6717 -93.5555 237° Southwest 461 531 40,000  Level FlightAware ADS-B (KHOU)
Sun 11:21:37 AM 30.6370 -93.6172 237° Southwest 460 529 40,000  Level FlightAware ADS-B (KHOU)
Sun 11:22:07 AM 30.6032 -93.6773 237° Southwest 460 529 40,000 -831 Level FlightAware ADS-B (KHOU)
Sun 11:22:42 AM 30.5590 -93.7557 237° Southwest 480 552 39,100 -2,250 Descending FlightAware ADS-B (KHOU)
Sun 11:23:11 AM 30.5219 -93.8213 237° Southwest 497 572 37,600 -3,000 Descending FlightAware ADS-B (KHOU)
Sun 11:23:42 AM 30.4840 -93.8880 237° Southwest 496 571 36,100 -2,951 Descending FlightAware ADS-B (KHOU)
Sun 11:24:12 AM 30.4465 -93.9542 237° Southwest 488 562 34,600 -3,000 Descending FlightAware ADS-B (KHOU)
Sun 11:24:42 AM 30.4093 -94.0197 237° Southwest 480 552 33,100 -3,000 Descending FlightAware ADS-B (KHOU)
Sun 11:25:12 AM 30.3734 -94.0827 237° Southwest 466 536 31,600 -2,949 Descending FlightAware ADS-B (KHOU)
Sun 11:25:41 AM 30.3385 -94.1439 237° Southwest 454 522 30,200 -2,847 Descending FlightAware ADS-B (KHOU)
Sun 11:26:11 AM 30.3036 -94.2051 237° Southwest 442 509 28,800 -2,754 Descending FlightAware ADS-B (KHOU)
Sun 11:26:42 AM 30.2702 -94.2635 237° Southwest 431 496 27,400 -2,700 Descending FlightAware ADS-B (KHOU)
Sun 11:27:11 AM 30.2393 -94.3200 243° Southwest 419 482 26,100 -2,609 Descending FlightAware ADS-B (KHOU)
Sun 11:27:28 AM 30.2286 -94.3476 249° West 413 475 25,400 -2,423 Descending FlightAware ADS-B
Sun 11:28:03 AM 30.2070 -94.4255 253° West 403 464 24,000 -2,492 Descending FlightAware ADS-B
Sun 11:28:33 AM 30.1900 -94.4880 253° West 399 459 22,700 -2,500 Descending FlightAware ADS-B
Sun 11:29:03 AM 30.1746 -94.5450 253° West 394 453 21,500 -2,459 Descending FlightAware ADS-B
Sun 11:29:34 AM 30.1586 -94.6045 253° West 389 448 20,200 -2,400 Descending FlightAware ADS-B
Sun 11:30:03 AM 30.1413 -94.6687 253° West 384 442 19,100 -2,200 Descending FlightAware ADS-B
Sun 11:30:34 AM 30.1270 -94.7215 253° West 379 436 18,000 -2,291 Descending FlightAware ADS-B (CYQX)
Sun 11:30:58 AM 30.1152 -94.7655 253° West 373 429 17,000 -2,441 Descending FlightAware ADS-B (CYQX)
Sun 11:31:33 AM 30.0950 -94.8401 253° West 365 420 15,600 -2,308 Descending FlightAware ADS-B
Sun 11:32:03 AM 30.0800 -94.8951 253° West 359 413 14,500 -1,938 Descending FlightAware ADS-B
Sun 11:32:38 AM 30.0633 -94.9568 253° West 340 391 13,500 -1,477 Descending FlightAware ADS-B (CYQX)
Sun 11:33:08 AM 30.0495 -95.0073 253° West 320 368 12,900 -1,200 Descending FlightAware ADS-B (CYQX)
Sun 11:33:38 AM 30.0366 -95.0549 253° West 318 366 12,300 -1,219 Descending FlightAware ADS-B (CYQX)
Sun 11:34:12 AM 30.0215 -95.1100 253° West 317 365 11,600 -1,174 Descending FlightAware ADS-B (KHOU)
Sun 11:34:24 AM 30.0154 -95.1293 245° Southwest 314 361 11,400 -947 Descending FlightAware ADS-B
Sun 11:34:31 AM 30.0092 -95.1410 234° Southwest 313 360 11,300 -1,000 Descending FlightAware ADS-B (KHOU)
Sun 11:34:42 AM 30.0000 -95.1520 222° Southwest 311 358 11,100 -1,429 Descending FlightAware ADS-B (KHOU)
Sun 11:34:52 AM 29.9872 -95.1615 209° Southwest 309 356 10,800 -1,500 Descending FlightAware ADS-B (KHOU)
Sun 11:35:02 AM 29.9732 -95.1667 195° South 304 350 10,600 -1,125 Descending FlightAware ADS-B (KHOU)
Sun 11:35:24 AM 29.9449 -95.1751 195° South 295 339 10,200 -1,135 Descending FlightAware ADS-B
Sun 11:35:39 AM 29.9244 -95.1812 195° South 292 336 9,900 -1,241 Descending FlightAware ADS-B
Sun 11:35:53 AM 29.9055 -95.1869 195° South 291 335 9,600 -1,241 Descending FlightAware ADS-B (CYQX)
Sun 11:36:08 AM 29.8858 -95.1927 195° South 293 337 9,300 -1,200 Descending FlightAware ADS-B (CYQX)
Sun 11:36:23 AM 29.8652 -95.1988 195° South 294 338 9,000 -1,200 Descending FlightAware ADS-B
Sun 11:36:38 AM 29.8455 -95.2047 196° South 292 336 8,700 -900 Descending FlightAware ADS-B (CYQX)
Sun 11:36:43 AM 29.8400 -95.2065 196° South 292 336 8,700 -1,000 Level FlightAware ADS-B (CYQX)
Sun 11:36:56 AM 29.8272 -95.2106 196° South 289 333 8,400 -1,200 Descending FlightAware ADS-B
Sun 11:37:13 AM 29.8018 -95.2187 196° South 287 330 8,100 -938 Descending FlightAware ADS-B (CYQX)
Sun 11:37:28 AM 29.7831 -95.2246 196° South 284 327 7,900 -1,000 Descending FlightAware ADS-B (CYQX)
Sun 11:37:43 AM 29.7631 -95.2309 196° South 282 325 7,600 -1,235 Descending FlightAware ADS-B (CYQX)
Sun 11:38:02 AM 29.7390 -95.2383 194° South 277 319 7,200 -1,043 Descending FlightAware ADS-B (KHOU)
Sun 11:38:06 AM 29.7330 -95.2397 192° South 275 316 7,200 -600 Level FlightAware ADS-B (KHOU)
Sun 11:38:22 AM 29.7145 -95.2422 184° South 265 305 7,000 -400 Descending FlightAware ADS-B (KHOU)
Sun 11:38:36 AM 29.6966 -95.2441 196° South 248 285 7,000 -300 Level FlightAware ADS-B (KHOU)
Sun 11:38:42 AM 29.6915 -95.2465 205° Southwest 245 282 6,900 -545 Descending FlightAware ADS-B (KHOU)
Sun 11:38:47 AM 29.6870 -95.2498 219° Southwest 240 276 6,900  Level FlightAware ADS-B (KHOU)
Sun 11:38:52 AM 29.6830 -95.2545 231° Southwest 237 273 6,900  Level FlightAware ADS-B (KHOU)
Sun 11:38:57 AM 29.6798 -95.2602 240° Southwest 236 272 6,900  Level FlightAware ADS-B (KHOU)
Sun 11:39:01 AM 29.6777 -95.2657 248° West 236 272 6,900  Level FlightAware ADS-B (KHOU)
Sun 11:39:16 AM 29.6758 -95.2713 249° West 235 270 6,900 -255 Level FlightAware ADS-B
Sun 11:39:48 AM 29.6585 -95.3198 249° West 235 270 6,700 -632 Descending FlightAware ADS-B
Sun 11:39:54 AM 29.6563 -95.3261 248° West 247 284 6,500 -2,182 Descending FlightAware ADS-B
Sun 11:40:21 AM 29.6437 -95.3617 248° West 255 293 5,500 -2,053 Descending FlightAware ADS-B (KHOU)
Sun 11:40:32 AM 29.6389 -95.3729 238° Southwest 255 293 5,200 -1,875 Descending FlightAware ADS-B (KHOU)
Sun 11:40:37 AM 29.6350 -95.3791 231° Southwest 254 292 5,000 -2,211 Descending FlightAware ADS-B (KHOU)
Sun 11:40:51 AM 29.6229 -95.3944 228° Southwest 256 295 4,500 -2,000 Descending FlightAware ADS-B (KHOU)
Sun 11:41:07 AM 29.6108 -95.4097 229° Southwest 255 293 4,000 -1,800 Descending FlightAware ADS-B (KHOU)
Sun 11:41:21 AM 29.6028 -95.4199 228° Southwest 255 293 3,600 -1,714 Descending FlightAware ADS-B (KHOU)
Sun 11:41:35 AM 29.5888 -95.4374 228° Southwest 254 292 3,200 -1,200 Descending FlightAware ADS-B (KHOU)
Sun 11:41:51 AM 29.5768 -95.4524 228° Southwest 242 278 3,000 -267 Descending FlightAware ADS-B (KHOU)
Sun 11:42:20 AM 29.5556 -95.4778 223° Southwest 215 247 3,000  Level FlightAware ADS-B (KHOU)
Sun 11:42:46 AM 29.5313 -95.4777 223° Southwest 215 247 3,000  Level FlightAware ADS-B (KHOU)
Sun 11:42:55 AM 29.5267 -95.4725 130° Southeast 203 234 3,000 -533 Level FlightAware ADS-B (KHOU)
Sun 11:43:31 AM 29.5150 -95.4368 98° East 204 235 2,600 -857 Descending FlightAware ADS-B (KHOU)
Sun 11:43:51 AM 29.5205 -95.4140 53° Northeast 205 236 2,200 -1,154 Descending FlightAware ADS-B (KHOU)
Sun 11:43:57 AM 29.5238 -95.4096 47° Northeast 207 238 2,100 -571 Descending FlightAware ADS-B (KHOU)
Sun 11:44:12 AM 29.5343 -95.3982 41° Northeast 205 236 2,000 -171 Descending FlightAware ADS-B (KHOU)
Sun 11:44:32 AM 29.5486 -95.3838 41° Northeast 206 237 2,000  Level FlightAware ADS-B (KHOU)
Sun 11:44:51 AM 29.5627 -95.3690 43° Northeast 204 235 2,000 -343 Level FlightAware ADS-B (KHOU)
Sun 11:45:07 AM 29.5722 -95.3587 42° Northeast 192 221 1,800 -774 Descending FlightAware ADS-B (KHOU)
Sun 11:45:22 AM 29.5821 -95.3482 43° Northeast 185 213 1,600 -1,000 Descending FlightAware ADS-B (KHOU)
Sun 11:45:37 AM 29.5914 -95.3380 43° Northeast 174 200 1,300 -1,000 Descending FlightAware ADS-B (KHOU)
Sun 11:45:52 AM 29.5997 -95.3288 44° Northeast 160 184 1,100 -600 Descending FlightAware ADS-B (KHOU)
Sun 11:46:07 AM 29.6071 -95.3206 44° Northeast 144 166 1,000 -621 Descending FlightAware ADS-B (KHOU)
Sun 11:46:21 AM 29.6140 -95.3133 43° Northeast 132 152 800 -828 Descending FlightAware ADS-B (KHOU)
Sun 11:46:36 AM 29.6185 -95.3081 45° Northeast 129 148 600 -774 Descending FlightAware ADS-B (KHOU)
Sun 11:46:52 AM 29.6264 -95.2995 43° Northeast 125 144 400 -600 Descending FlightAware ADS-B (KHOU)
Sun 11:47:06 AM 29.6328 -95.2923 44° Northeast 129 148 300 -429 Descending FlightAware ADS-B (KHOU)

Login

Don't have an account? Register now (free) for customized features, flight alerts, and more!